Home   Weather   Monaco   Monaco   Past weeks
Flag for Monaco

Past Weather in Monaco, Monaco — Yesterday and Last 2 Weeks

Currently: 81 °F. Passing clouds. (Weather station: Nice Airport, Monaco). See more current weather

Past Weather in Monaco — Graph

°F

Monaco Temperature Yesterday

Maximum temperature yesterday: 82 °F (at 4:30 pm)
Minimum temperature yesterday: 72 °F (at 6:30 am)
Average temperature yesterday: 78 °F

High & Low Weather Summary for the Past Weeks

 TemperatureHumidityPressure
High91 °F (Jul 18, 11:00 am)94% (Jul 20, 11:00 pm)30.07 "Hg (Jul 20, 11:00 pm)
Low66 °F (Jul 15, 5:30 am)32% (Jul 18, 11:00 am)29.74 "Hg (Jul 25, 3:00 am)
Average77 °F72%29.91 "Hg
* Reported Jul 14 10:00 am — Jul 29 10:00 am, Monaco. Weather by CustomWeather, © 2021

Note: Actual official high and low records may vary slightly from our data, if they occured in-between our weather recording intervals... More about our weather records

Monaco Weather History for the Previous 24 Hours

Scroll right to see more
 ConditionsComfort  
Time TempWeatherWind HumidityBarometerVisibility
10:00 am
Thu, Jul 29
79 °FPassing clouds.2 mph70%29.95 "HgN/A
9:30 am79 °FPassing clouds.2 mph51%29.95 "HgN/A
8:30 am75 °FPassing clouds.9 mph57%29.95 "HgN/A
8:00 am73 °FPassing clouds.9 mph61%29.95 "HgN/A
7:30 am72 °FPassing clouds.10 mph69%29.95 "HgN/A
7:00 am72 °FPassing clouds.9 mph69%29.95 "HgN/A
6:30 am70 °FPassing clouds.7 mph73%29.95 "HgN/A
6:00 am70 °FPassing clouds.8 mph78%29.95 "HgN/A
5:30 am72 °FPassing clouds.7 mph73%29.95 "HgN/A
5:00 am72 °FPassing clouds.9 mph73%29.92 "HgN/A
4:30 am72 °FPassing clouds.8 mph78%29.92 "HgN/A
4:00 am72 °FPassing clouds.8 mph78%29.95 "HgN/A
3:30 am72 °FPassing clouds.7 mph78%29.95 "HgN/A
3:00 am73 °FPassing clouds.6 mph74%29.95 "HgN/A
2:30 am73 °FPassing clouds.5 mph74%29.92 "HgN/A
2:00 am73 °FPassing clouds.6 mph78%29.95 "HgN/A
1:30 am77 °FPassing clouds.10 mph83%29.95 "HgN/A
1:00 am77 °FPassing clouds.10 mph83%29.95 "HgN/A
12:30 am77 °FPassing clouds.12 mph83%29.92 "HgN/A
12:00 am77 °FClear.10 mph83%29.92 "Hg10 mi
11:30 pm
Wed, Jul 28
77 °FClear.9 mph79%29.92 "Hg10 mi
11:00 pm79 °FClear.10 mph74%29.92 "Hg10 mi
10:30 pm79 °FClear.9 mph79%29.92 "Hg10 mi
10:00 pm79 °FClear.10 mph79%29.92 "Hg10 mi
9:30 pm79 °FClear.9 mph79%29.92 "Hg10 mi
9:00 pm79 °FClear.9 mph79%29.92 "Hg10 mi
8:30 pm79 °FSunny.8 mph74%29.92 "Hg10 mi
8:00 pm79 °FSunny.7 mph74%29.89 "Hg10 mi
7:30 pm81 °FSunny.6 mph74%29.92 "Hg10 mi
7:00 pm81 °FPassing clouds.5 mph70%29.92 "HgN/A
6:30 pm81 °FSunny.6 mph70%29.92 "Hg10 mi
6:00 pm81 °FSunny.6 mph70%29.92 "Hg10 mi
5:30 pm81 °FPassing clouds.7 mph70%29.92 "HgN/A
5:00 pm81 °FSunny.7 mph74%29.92 "Hg10 mi
4:30 pm82 °FPassing clouds.7 mph66%29.92 "HgN/A
4:00 pm81 °FPassing clouds.6 mph70%29.92 "HgN/A
3:30 pm81 °FPassing clouds.6 mph70%29.92 "HgN/A
3:00 pm81 °FPassing clouds.7 mph70%29.92 "HgN/A
2:30 pm81 °FPassing clouds.7 mph74%29.95 "HgN/A
2:00 pm81 °FPassing clouds.6 mph74%29.95 "HgN/A
1:30 pm81 °FScattered clouds.7 mph74%29.92 "HgN/A
1:00 pm79 °FPartly sunny.7 mph79%29.95 "HgN/A
12:30 pm79 °FLight rain. Partly sunny.6 mph79%29.95 "HgN/A
12:00 pm79 °FLight rain. Clear.8 mph74%29.95 "HgN/A
11:30 am79 °FPartly sunny.6 mph74%29.95 "HgN/A
11:00 am79 °FPartly sunny.6 mph74%29.95 "HgN/A
Weather by CustomWeather, © 2021

See weather overview